createdAt,value
2022-08-03T00:00:16.531Z,99544.41
2022-08-03T00:03:03.951Z,99539.72
2022-08-03T00:06:04.120Z,99537.91
2022-08-03T00:08:53.970Z,99540.28
2022-08-03T00:11:41.611Z,99540.38
2022-08-03T00:14:28.959Z,99541.47
2022-08-03T00:17:16.227Z,99535.19
2022-08-03T00:20:03.509Z,99538.16
2022-08-03T00:22:51.527Z,99543.75
2022-08-03T00:25:41.242Z,99536.38
2022-08-03T00:28:28.636Z,99544.63
2022-08-03T00:31:16.093Z,99531.38
2022-08-03T00:34:04.226Z,99528.56
2022-08-03T00:36:51.735Z,99532.88
2022-08-03T00:39:39.245Z,99530.22
2022-08-03T00:42:28.651Z,99525.25
2022-08-03T00:45:16.084Z,99525.84
2022-08-03T00:48:04.656Z,99524.25
2022-08-03T00:50:52.684Z,99524.06
2022-08-03T00:53:41.440Z,99524.97
2022-08-03T00:56:28.894Z,99525.25
2022-08-03T00:59:17.987Z,99516.66
2022-08-03T01:02:05.907Z,99520.69
2022-08-03T01:04:53.460Z,99529.22
2022-08-03T01:07:57.184Z,99532.94
2022-08-03T01:10:56.054Z,99531.94
2022-08-03T01:14:03.929Z,99514.78
2022-08-03T01:17:06.661Z,99525.69
2022-08-03T01:20:02.119Z,99524.09
2022-08-03T01:23:24.237Z,99521.53
2022-08-03T01:26:44.178Z,99518.41
2022-08-03T01:30:00.524Z,99511.34
2022-08-03T01:33:00.693Z,99516.88
2022-08-03T01:35:55.232Z,99509.22
2022-08-03T01:38:45.914Z,99519.00
2022-08-03T01:41:41.036Z,99511.16
2022-08-03T01:44:32.135Z,99505.69
2022-08-03T01:47:22.413Z,99505.47
2022-08-03T01:50:12.790Z,99503.72
2022-08-03T01:53:01.095Z,99504.78
2022-08-03T01:55:51.091Z,99501.69
2022-08-03T01:58:40.094Z,99506.19
2022-08-03T02:02:32.145Z,99501.97
2022-08-03T02:04:40.914Z,99501.00
2022-08-03T02:07:30.391Z,99502.34
2022-08-03T02:10:34.667Z,99493.94
2022-08-03T02:13:24.629Z,99497.44
2022-08-03T02:16:13.146Z,99500.91
2022-08-03T02:19:03.321Z,99500.41
2022-08-03T02:21:56.286Z,99498.03
2022-08-03T02:24:51.249Z,99500.81
2022-08-03T02:27:47.368Z,99498.75
2022-08-03T02:30:39.147Z,99500.38
2022-08-03T02:33:32.767Z,99497.72
2022-08-03T02:36:25.342Z,99492.44
2022-08-03T02:39:22.216Z,99497.25
2022-08-03T02:42:12.812Z,99496.25
2022-08-03T02:45:05.444Z,99496.03
2022-08-03T02:47:58.132Z,99494.47
2022-08-03T02:50:46.605Z,99482.13
2022-08-03T02:53:36.213Z,99492.13
2022-08-03T02:56:26.910Z,99490.84
2022-08-03T02:59:15.268Z,99496.44
2022-08-03T03:02:03.949Z,99488.00
2022-08-03T03:05:50.660Z,99486.44
2022-08-03T03:08:01.370Z,99484.38
2022-08-03T03:10:53.205Z,99487.59
2022-08-03T03:13:45.216Z,99499.03
2022-08-03T03:16:33.788Z,99483.47
2022-08-03T03:19:23.119Z,99494.34
2022-08-03T03:22:11.253Z,99498.34
2022-08-03T03:24:58.903Z,99495.72
2022-08-03T03:27:49.417Z,99489.16
2022-08-03T03:30:40.016Z,99494.22
2022-08-03T03:33:28.594Z,99491.09
2022-08-03T03:36:16.212Z,99483.16
2022-08-03T03:39:16.075Z,99485.81
2022-08-03T03:42:05.062Z,99488.25
2022-08-03T03:44:52.794Z,99495.41
2022-08-03T03:47:42.107Z,99495.41
2022-08-03T03:50:31.508Z,99494.63
2022-08-03T03:53:19.122Z,99497.53
2022-08-03T03:56:06.522Z,99489.63
2022-08-03T03:58:54.607Z,99492.84
2022-08-03T04:01:42.335Z,99484.44
2022-08-03T04:04:50.620Z,99491.28
2022-08-03T04:08:07.810Z,99493.22
2022-08-03T04:11:08.600Z,99486.72
2022-08-03T04:14:01.738Z,99494.66
2022-08-03T04:16:53.578Z,99486.22
2022-08-03T04:19:46.378Z,99493.38
2022-08-03T04:22:35.731Z,99494.16
2022-08-03T04:25:26.250Z,99492.59
2022-08-03T04:28:30.343Z,99489.44
2022-08-03T04:31:22.436Z,99500.59
2022-08-03T04:34:11.372Z,99499.00
2022-08-03T04:37:04.806Z,99495.06
2022-08-03T04:39:56.932Z,99505.47
2022-08-03T04:42:46.447Z,99495.94
2022-08-03T04:45:37.424Z,99505.03
2022-08-03T04:48:28.027Z,99503.16
2022-08-03T04:51:17.024Z,99507.69
2022-08-03T04:54:07.566Z,99518.53
2022-08-03T04:56:55.254Z,99505.09
2022-08-03T04:59:43.252Z,99520.44
2022-08-03T05:02:33.163Z,99511.47
2022-08-03T05:05:24.782Z,99515.47
2022-08-03T05:08:12.444Z,99508.88
2022-08-03T05:11:02.686Z,99503.59
2022-08-03T05:13:50.603Z,99502.59
2022-08-03T05:16:38.366Z,99507.31
2022-08-03T05:19:26.676Z,99495.25
2022-08-03T05:22:15.445Z,99508.41
2022-08-03T05:25:04.223Z,99507.91
2022-08-03T05:27:53.857Z,99497.31
2022-08-03T05:30:41.804Z,99496.53
2022-08-03T05:33:30.089Z,99500.47
2022-08-03T05:36:18.010Z,99498.31
2022-08-03T05:39:05.757Z,99503.03
2022-08-03T05:41:53.608Z,99500.97
2022-08-03T05:44:43.422Z,99504.59
2022-08-03T05:47:31.696Z,99502.28
2022-08-03T05:50:21.740Z,99510.97
2022-08-03T05:53:09.972Z,99508.81
2022-08-03T05:56:02.319Z,99507.97
2022-08-03T05:59:16.322Z,99516.59
2022-08-03T06:02:10.860Z,99516.50
2022-08-03T06:04:59.024Z,99518.00
2022-08-03T06:07:46.875Z,99505.81
2022-08-03T06:10:37.984Z,99518.16
2022-08-03T06:13:26.332Z,99515.13
2022-08-03T06:16:14.483Z,99516.91
2022-08-03T06:19:05.373Z,99517.59
2022-08-03T06:21:53.588Z,99513.31
2022-08-03T06:24:53.213Z,99507.94
2022-08-03T06:27:42.099Z,99508.94
2022-08-03T06:30:29.891Z,99496.22
2022-08-03T06:33:17.894Z,99506.63
2022-08-03T06:36:07.827Z,99494.66
2022-08-03T06:38:55.702Z,99496.81
2022-08-03T06:41:44.728Z,99493.34
2022-08-03T06:44:33.076Z,99496.66
2022-08-03T06:47:21.127Z,99500.19
2022-08-03T06:50:16.166Z,99502.16
2022-08-03T06:53:06.970Z,99501.97
2022-08-03T06:55:55.603Z,99499.19
2022-08-03T06:58:44.435Z,99494.28
2022-08-03T07:01:33.009Z,99505.25
2022-08-03T07:04:21.540Z,99502.91
2022-08-03T07:07:11.248Z,99501.75
2022-08-03T07:10:02.204Z,99497.81
2022-08-03T07:12:52.724Z,99508.78
2022-08-03T07:15:55.728Z,99507.97
2022-08-03T07:18:44.471Z,99511.44
2022-08-03T07:21:32.990Z,99507.97
2022-08-03T07:24:21.263Z,99500.69
2022-08-03T07:27:11.084Z,99489.41
2022-08-03T07:30:00.629Z,99496.63
2022-08-03T07:32:50.606Z,99503.88
2022-08-03T07:35:39.156Z,99502.38
2022-08-03T07:38:27.071Z,99500.41
2022-08-03T07:41:15.263Z,99495.50
2022-08-03T07:44:04.838Z,99489.91
2022-08-03T07:46:53.265Z,99479.81
2022-08-03T07:49:42.570Z,99498.00
2022-08-03T07:52:49.791Z,99492.09
2022-08-03T07:55:38.304Z,99497.34
2022-08-03T07:58:26.377Z,99500.94
2022-08-03T08:01:17.373Z,99498.00
2022-08-03T08:04:05.778Z,99489.25
2022-08-03T08:07:05.499Z,99487.53
2022-08-03T08:09:53.493Z,99492.59
2022-08-03T08:12:41.964Z,99490.88
2022-08-03T08:15:32.958Z,99484.16
2022-08-03T08:18:22.278Z,99477.56
2022-08-03T08:21:10.397Z,99483.53
2022-08-03T08:23:58.186Z,99481.75
2022-08-03T08:26:55.294Z,99477.66
2022-08-03T08:29:52.566Z,99477.00
2022-08-03T08:32:43.370Z,99467.22
2022-08-03T08:35:35.770Z,99465.47
2022-08-03T08:38:24.534Z,99463.72
2022-08-03T08:41:14.218Z,99463.81
2022-08-03T08:44:02.834Z,99465.94
2022-08-03T08:46:51.469Z,99469.78
2022-08-03T08:49:53.422Z,99462.34
2022-08-03T08:52:53.710Z,99467.06
2022-08-03T08:55:58.601Z,99472.00
2022-08-03T08:58:56.264Z,99458.09
2022-08-03T09:01:44.632Z,99451.75
2022-08-03T09:04:33.706Z,99457.56
2022-08-03T09:07:21.625Z,99460.72
2022-08-03T09:10:13.894Z,99458.56
2022-08-03T09:13:01.992Z,99458.16
2022-08-03T09:16:01.098Z,99458.16
2022-08-03T09:18:54.547Z,99458.97
2022-08-03T09:21:42.592Z,99456.28
2022-08-03T09:24:41.143Z,99452.88
2022-08-03T09:27:31.148Z,99452.09
2022-08-03T09:30:34.447Z,99463.53
2022-08-03T09:33:24.530Z,99454.28
2022-08-03T09:36:37.617Z,99457.28
2022-08-03T09:39:42.166Z,99453.72
2022-08-03T09:42:31.697Z,99457.06
2022-08-03T09:45:28.674Z,99441.88
2022-08-03T09:48:25.496Z,99447.44
2022-08-03T09:51:33.283Z,99447.63
2022-08-03T09:54:34.332Z,99450.84
2022-08-03T09:57:24.133Z,99447.59
2022-08-03T10:00:16.562Z,99445.81
2022-08-03T10:03:06.264Z,99442.94
2022-08-03T10:05:59.349Z,99442.22
2022-08-03T10:08:47.914Z,99439.75
2022-08-03T10:11:40.947Z,99444.53
2022-08-03T10:14:31.881Z,99436.69
2022-08-03T10:17:21.433Z,99433.75
2022-08-03T10:20:12.236Z,99440.41
2022-08-03T10:23:01.710Z,99443.28
2022-08-03T10:25:54.607Z,99440.47
2022-08-03T10:28:50.413Z,99426.81
2022-08-03T10:31:55.904Z,99436.16
2022-08-03T10:34:48.307Z,99433.22
2022-08-03T10:37:43.207Z,99414.63
2022-08-03T10:40:49.981Z,99411.28
2022-08-03T10:43:55.469Z,99402.88
2022-08-03T10:46:45.438Z,99406.78
2022-08-03T10:49:35.709Z,99392.69
2022-08-03T10:52:32.822Z,99398.91
2022-08-03T10:55:56.527Z,99393.19
2022-08-03T10:58:53.296Z,99389.03
2022-08-03T11:01:59.945Z,99394.50
2022-08-03T11:04:48.607Z,99390.44
2022-08-03T11:07:37.687Z,99390.63
2022-08-03T11:10:34.863Z,99395.78
2022-08-03T11:13:25.588Z,99395.84
2022-08-03T11:16:23.606Z,99381.03
2022-08-03T11:19:14.218Z,99385.03
2022-08-03T11:22:02.150Z,99383.53
2022-08-03T11:25:04.659Z,99374.50
2022-08-03T11:28:30.648Z,99371.16
2022-08-03T11:31:50.877Z,99379.19
2022-08-03T11:35:10.291Z,99373.13
2022-08-03T11:38:15.788Z,99374.06
2022-08-03T11:41:03.816Z,99383.41
2022-08-03T11:43:53.386Z,99365.84
2022-08-03T11:46:41.847Z,99361.72
2022-08-03T11:49:29.549Z,99362.13
2022-08-03T11:52:27.210Z,99359.09
2022-08-03T11:55:20.733Z,99359.09
2022-08-03T11:59:00.955Z,99364.53
2022-08-03T12:01:23.036Z,99350.41
2022-08-03T12:04:11.911Z,99355.47
2022-08-03T12:07:01.281Z,99344.47
2022-08-03T12:10:08.091Z,99344.88
2022-08-03T12:12:57.873Z,99340.72
2022-08-03T12:15:52.416Z,99336.16
2022-08-03T12:18:43.696Z,99335.00
2022-08-03T12:21:32.402Z,99335.44
2022-08-03T12:24:20.937Z,99327.81
2022-08-03T12:27:08.927Z,99339.41
2022-08-03T12:29:59.275Z,99339.09
2022-08-03T12:32:47.684Z,99336.41
2022-08-03T12:35:37.212Z,99329.13
2022-08-03T12:38:25.380Z,99332.97
2022-08-03T12:41:19.187Z,99330.19
2022-08-03T12:44:09.420Z,99312.94
2022-08-03T12:47:00.202Z,99327.50
2022-08-03T12:49:48.252Z,99334.84
2022-08-03T12:52:45.284Z,99327.59
2022-08-03T12:55:57.753Z,99332.97
2022-08-03T12:58:43.641Z,99329.13
2022-08-03T13:01:54.953Z,99325.38
2022-08-03T13:04:43.744Z,99325.31
2022-08-03T13:07:45.675Z,99322.22
2022-08-03T13:10:35.288Z,99317.91
2022-08-03T13:13:41.326Z,99312.94
2022-08-03T13:16:29.316Z,99315.28
2022-08-03T13:19:17.031Z,99313.78
2022-08-03T13:22:13.717Z,99316.13
2022-08-03T13:25:03.878Z,99313.78
2022-08-03T13:28:05.378Z,99310.75
2022-08-03T13:30:54.854Z,99307.31
2022-08-03T13:33:43.065Z,99299.25
2022-08-03T13:36:42.761Z,99313.06
2022-08-03T13:39:57.422Z,99300.06
2022-08-03T13:42:48.425Z,99300.91
2022-08-03T13:45:36.945Z,99303.19
2022-08-03T13:48:37.208Z,99294.00
2022-08-03T13:51:26.897Z,99289.34
2022-08-03T13:54:15.108Z,99290.47
2022-08-03T13:58:03.294Z,99291.59
2022-08-03T14:00:27.966Z,99286.94
2022-08-03T14:03:17.236Z,99275.78
2022-08-03T14:06:05.216Z,99271.13
2022-08-03T14:08:53.977Z,99271.56
2022-08-03T14:12:04.089Z,99279.25
2022-08-03T14:14:56.021Z,99269.28
2022-08-03T14:17:50.101Z,99260.47
2022-08-03T14:20:47.824Z,99262.06
2022-08-03T14:23:41.653Z,99257.81
2022-08-03T14:26:30.472Z,99251.75
2022-08-03T14:29:18.227Z,99253.72
2022-08-03T14:32:12.095Z,99255.25
2022-08-03T14:35:02.501Z,99242.66
2022-08-03T14:37:51.941Z,99241.59
2022-08-03T14:40:39.882Z,99245.81
2022-08-03T14:43:33.999Z,99248.84
2022-08-03T14:46:22.385Z,99241.53
2022-08-03T14:50:36.927Z,99248.03
2022-08-03T14:52:19.960Z,99245.66
2022-08-03T14:55:08.814Z,99246.81
2022-08-03T14:57:56.556Z,99241.00
2022-08-03T15:00:44.661Z,99245.56
2022-08-03T15:03:32.606Z,99232.13
2022-08-03T15:06:20.908Z,99240.91
2022-08-03T15:09:21.596Z,99228.97
2022-08-03T15:12:11.390Z,99225.50
2022-08-03T15:14:59.526Z,99226.66
2022-08-03T15:18:00.110Z,99219.34
2022-08-03T15:20:50.815Z,99218.97
2022-08-03T15:23:39.014Z,99209.47
2022-08-03T15:26:35.366Z,99211.75
2022-08-03T15:30:07.059Z,99204.09
2022-08-03T15:32:35.726Z,99194.81
2022-08-03T15:35:23.579Z,99198.66
2022-08-03T15:38:11.786Z,99197.47
2022-08-03T15:40:59.560Z,99193.59
2022-08-03T15:43:48.665Z,99191.63
2022-08-03T15:46:36.526Z,99188.94
2022-08-03T15:49:24.647Z,99191.19
2022-08-03T15:52:12.659Z,99185.41
2022-08-03T15:55:00.403Z,99192.25
2022-08-03T15:59:09.578Z,99183.78
2022-08-03T16:00:58.188Z,99183.00
2022-08-03T16:03:46.134Z,99177.63
2022-08-03T16:06:35.523Z,99176.59
2022-08-03T16:09:42.728Z,99175.09
2022-08-03T16:12:31.732Z,99171.63
2022-08-03T16:15:19.519Z,99175.53
2022-08-03T16:18:08.917Z,99169.00
2022-08-03T16:20:56.786Z,99167.88
2022-08-03T16:23:47.315Z,99170.56
2022-08-03T16:26:35.301Z,99169.44
2022-08-03T16:29:23.783Z,99160.25
2022-08-03T16:32:11.734Z,99168.28
2022-08-03T16:35:02.155Z,99148.25
2022-08-03T16:37:54.688Z,99157.44
2022-08-03T16:40:45.956Z,99157.00
2022-08-03T16:43:34.881Z,99165.75
2022-08-03T16:46:23.418Z,99156.94
2022-08-03T16:49:11.181Z,99154.63
2022-08-03T16:52:00.969Z,99154.63
2022-08-03T16:54:50.776Z,99156.88
2022-08-03T16:57:59.549Z,99155.34
2022-08-03T17:00:48.417Z,99160.28
2022-08-03T17:03:42.638Z,99158.31
2022-08-03T17:06:49.099Z,99162.06
2022-08-03T17:09:39.116Z,99157.84
2022-08-03T17:12:34.246Z,99158.19
2022-08-03T17:15:38.438Z,99157.00
2022-08-03T17:18:36.082Z,99155.03
2022-08-03T17:21:29.575Z,99158.06
2022-08-03T17:24:26.586Z,99154.22
2022-08-03T17:28:48.491Z,99161.06
2022-08-03T17:30:49.608Z,99154.88
2022-08-03T17:33:39.471Z,99154.44
2022-08-03T17:36:47.670Z,99154.81
2022-08-03T17:39:57.567Z,99157.41
2022-08-03T17:42:50.853Z,99158.16
2022-08-03T17:45:52.190Z,99157.69
2022-08-03T17:48:42.156Z,99156.84
2022-08-03T17:51:33.402Z,99154.53
2022-08-03T17:58:02.206Z,99156.72
2022-08-03T18:01:59.778Z,99161.25
2022-08-03T18:04:29.999Z,99162.72
2022-08-03T18:07:21.831Z,99171.91
2022-08-03T18:10:15.419Z,99160.34
2022-08-03T18:13:10.876Z,99165.63
2022-08-03T18:16:02.416Z,99174.00
2022-08-03T18:18:54.783Z,99166.72
2022-08-03T18:22:03.633Z,99163.94
2022-08-03T18:24:53.748Z,99163.13
2022-08-03T18:27:45.970Z,99167.63
2022-08-03T18:30:54.699Z,99167.56
2022-08-03T18:36:54.771Z,99161.19
2022-08-03T18:39:49.597Z,99163.78
2022-08-03T18:42:40.533Z,99167.94
2022-08-03T18:45:55.836Z,99170.13
2022-08-03T18:48:55.611Z,99165.81
2022-08-03T18:51:56.917Z,99168.44
2022-08-03T18:55:03.830Z,99175.94
2022-08-03T18:58:15.883Z,99175.69
2022-08-03T19:01:57.752Z,99180.44
2022-08-03T19:04:33.247Z,99182.03
2022-08-03T19:07:28.859Z,99186.72
2022-08-03T19:10:27.080Z,99192.22
2022-08-03T19:13:35.874Z,99193.38
2022-08-03T19:16:34.242Z,99190.47
2022-08-03T19:19:24.696Z,99202.34
2022-08-03T19:22:15.997Z,99202.63
2022-08-03T19:25:06.341Z,99206.19
2022-08-03T19:28:03.137Z,99215.13
2022-08-03T19:30:55.295Z,99209.97
2022-08-03T19:33:55.721Z,99210.53
2022-08-03T19:36:50.012Z,99220.19
2022-08-03T19:39:38.937Z,99223.56
2022-08-03T19:42:32.418Z,99218.63
2022-08-03T19:46:06.343Z,99224.31
2022-08-03T19:48:54.136Z,99224.97
2022-08-03T19:51:58.561Z,99221.91
2022-08-03T19:54:54.697Z,99213.19
2022-08-03T19:57:49.246Z,99214.78
2022-08-03T20:00:40.927Z,99220.28
2022-08-03T20:03:43.315Z,99210.47
2022-08-03T20:06:33.424Z,99221.59
2022-08-03T20:09:24.533Z,99222.53
2022-08-03T20:12:19.391Z,99225.69
2022-08-03T20:15:22.254Z,99221.31
2022-08-03T20:18:19.472Z,99223.38
2022-08-03T20:21:19.211Z,99226.97
2022-08-03T20:24:23.326Z,99218.38
2022-08-03T20:27:16.739Z,99227.31
2022-08-03T20:30:07.451Z,99219.97
2022-08-03T20:32:55.998Z,99226.38
2022-08-03T20:35:45.907Z,99224.66
2022-08-03T20:38:43.723Z,99223.44
2022-08-03T20:41:36.797Z,99230.44
2022-08-03T20:47:35.900Z,99227.97
2022-08-03T20:50:23.940Z,99227.19
2022-08-03T20:53:12.835Z,99224.06
2022-08-03T20:56:02.854Z,99235.28
2022-08-03T20:58:53.190Z,99234.50
2022-08-03T21:01:40.905Z,99236.72
2022-08-03T21:04:32.262Z,99232.47
2022-08-03T21:07:22.930Z,99222.16
2022-08-03T21:10:15.777Z,99228.13
2022-08-03T21:12:55.595Z,99157.56
2022-08-03T21:12:58.400Z,99169.72
2022-08-03T21:13:13.183Z,99223.13
2022-08-03T21:13:18.862Z,99221.53
2022-08-03T21:16:14.055Z,99219.06
2022-08-03T21:19:05.296Z,99224.38
2022-08-03T21:21:55.472Z,99217.16
2022-08-03T21:24:45.582Z,99223.28
2022-08-03T21:27:34.212Z,99219.81
2022-08-03T21:30:23.435Z,99224.38
2022-08-03T21:33:12.645Z,99222.47
2022-08-03T21:36:02.037Z,99222.47
2022-08-03T21:38:55.838Z,99227.78
2022-08-03T21:41:44.587Z,99220.16
2022-08-03T21:44:32.846Z,99230.00
2022-08-03T21:47:23.237Z,99225.00
2022-08-03T21:50:14.987Z,99228.28
2022-08-03T21:53:02.995Z,99219.06
2022-08-03T21:55:59.464Z,99223.91
2022-08-03T21:58:52.732Z,99221.09
2022-08-03T22:04:53.293Z,99212.03
2022-08-03T22:07:46.626Z,99213.44
2022-08-03T22:10:35.229Z,99217.66
2022-08-03T22:13:43.590Z,99216.56
2022-08-03T22:16:32.175Z,99218.75
2022-08-03T22:19:20.062Z,99217.66
2022-08-03T22:22:14.009Z,99217.66
2022-08-03T22:25:11.697Z,99211.56
2022-08-03T22:28:02.435Z,99225.63
2022-08-03T22:30:50.503Z,99223.75
2022-08-03T22:33:39.479Z,99225.16
2022-08-03T22:36:28.154Z,99220.50
2022-08-03T22:39:25.658Z,99225.31
2022-08-03T22:42:16.227Z,99220.00
2022-08-03T22:45:07.171Z,99222.66
2022-08-03T22:47:57.218Z,99227.66
2022-08-03T22:50:46.224Z,99226.88
2022-08-03T22:53:34.526Z,99224.53
2022-08-03T22:56:22.611Z,99225.63
2022-08-03T22:59:40.858Z,99221.41
2022-08-03T23:02:21.823Z,99219.06
2022-08-03T23:06:01.319Z,99233.09
2022-08-03T23:08:26.534Z,99227.34
2022-08-03T23:11:15.900Z,99232.97
2022-08-03T23:14:08.751Z,99232.97
2022-08-03T23:17:00.765Z,99231.41
2022-08-03T23:19:48.917Z,99222.97
2022-08-03T23:22:42.853Z,99225.31
2022-08-03T23:25:31.184Z,99226.41
2022-08-03T23:28:19.779Z,99234.38
2022-08-03T23:31:09.939Z,99232.03
2022-08-03T23:34:19.292Z,99227.78
2022-08-03T23:37:07.521Z,99232.59
2022-08-03T23:39:56.253Z,99228.41
2022-08-03T23:42:47.617Z,99224.97
2022-08-03T23:45:37.798Z,99224.97
2022-08-03T23:48:26.002Z,99226.81
2022-08-03T23:51:27.932Z,99221.06
2022-08-03T23:54:34.251Z,99225.56
2022-08-03T23:57:32.556Z,99213.72
